sensor_id;sensor_type;location;lat;lon;timestamp;P1;durP1;ratioP1;P2;durP2;ratioP2
18973;SDS011;9621;48.690;9.466;2022-10-03T00:05:22;7.80;;;5.70;;
18973;SDS011;9621;48.690;9.466;2022-10-03T00:08:00;12.53;;;8.17;;
18973;SDS011;9621;48.690;9.466;2022-10-03T00:10:36;12.30;;;8.83;;
18973;SDS011;9621;48.690;9.466;2022-10-03T00:13:18;11.00;;;8.33;;
18973;SDS011;9621;48.690;9.466;2022-10-03T00:15:52;11.83;;;8.20;;
18973;SDS011;9621;48.690;9.466;2022-10-03T00:18:32;9.03;;;7.30;;
18973;SDS011;9621;48.690;9.466;2022-10-03T00:21:08;9.87;;;7.23;;
18973;SDS011;9621;48.690;9.466;2022-10-03T00:23:46;8.83;;;7.00;;
18973;SDS011;9621;48.690;9.466;2022-10-03T00:26:22;9.70;;;6.97;;
18973;SDS011;9621;48.690;9.466;2022-10-03T00:29:05;9.43;;;7.07;;
18973;SDS011;9621;48.690;9.466;2022-10-03T00:31:59;8.20;;;6.60;;
18973;SDS011;9621;48.690;9.466;2022-10-03T00:34:38;13.57;;;7.43;;
18973;SDS011;9621;48.690;9.466;2022-10-03T00:37:56;9.97;;;6.87;;
18973;SDS011;9621;48.690;9.466;2022-10-03T00:40:44;9.57;;;6.87;;
18973;SDS011;9621;48.690;9.466;2022-10-03T00:43:36;8.70;;;7.37;;
18973;SDS011;9621;48.690;9.466;2022-10-03T00:46:46;10.07;;;6.83;;
18973;SDS011;9621;48.690;9.466;2022-10-03T00:49:46;9.43;;;7.27;;
18973;SDS011;9621;48.690;9.466;2022-10-03T00:52:45;11.63;;;7.83;;
18973;SDS011;9621;48.690;9.466;2022-10-03T00:55:26;11.23;;;8.17;;
18973;SDS011;9621;48.690;9.466;2022-10-03T00:58:07;10.47;;;7.80;;
18973;SDS011;9621;48.690;9.466;2022-10-03T01:00:48;19.03;;;8.63;;
18973;SDS011;9621;48.690;9.466;2022-10-03T01:03:30;12.50;;;9.13;;
18973;SDS011;9621;48.690;9.466;2022-10-03T01:06:10;12.77;;;9.13;;
18973;SDS011;9621;48.690;9.466;2022-10-03T01:08:47;14.83;;;8.93;;
18973;SDS011;9621;48.690;9.466;2022-10-03T01:11:44;13.67;;;8.53;;
18973;SDS011;9621;48.690;9.466;2022-10-03T01:14:38;11.10;;;8.40;;
18973;SDS011;9621;48.690;9.466;2022-10-03T01:17:30;11.20;;;8.70;;
18973;SDS011;9621;48.690;9.466;2022-10-03T01:20:16;11.80;;;8.90;;
18973;SDS011;9621;48.690;9.466;2022-10-03T01:23:00;11.40;;;8.73;;
18973;SDS011;9621;48.690;9.466;2022-10-03T01:25:52;12.70;;;8.30;;
18973;SDS011;9621;48.690;9.466;2022-10-03T01:28:36;12.90;;;8.80;;
18973;SDS011;9621;48.690;9.466;2022-10-03T01:31:27;16.83;;;11.70;;
18973;SDS011;9621;48.690;9.466;2022-10-03T01:34:00;17.47;;;11.27;;
18973;SDS011;9621;48.690;9.466;2022-10-03T01:36:36;16.47;;;11.27;;
18973;SDS011;9621;48.690;9.466;2022-10-03T01:39:12;17.47;;;9.40;;
18973;SDS011;9621;48.690;9.466;2022-10-03T01:41:46;10.80;;;8.77;;
18973;SDS011;9621;48.690;9.466;2022-10-03T01:44:19;13.30;;;9.43;;
18973;SDS011;9621;48.690;9.466;2022-10-03T01:46:51;14.50;;;10.53;;
18973;SDS011;9621;48.690;9.466;2022-10-03T01:49:24;14.00;;;10.67;;
18973;SDS011;9621;48.690;9.466;2022-10-03T01:51:57;15.40;;;9.50;;
18973;SDS011;9621;48.690;9.466;2022-10-03T01:54:31;14.87;;;9.67;;
18973;SDS011;9621;48.690;9.466;2022-10-03T01:57:03;11.87;;;9.20;;
18973;SDS011;9621;48.690;9.466;2022-10-03T01:59:44;13.23;;;9.73;;
18973;SDS011;9621;48.690;9.466;2022-10-03T02:02:20;13.23;;;10.03;;
18973;SDS011;9621;48.690;9.466;2022-10-03T02:04:58;14.90;;;10.47;;
18973;SDS011;9621;48.690;9.466;2022-10-03T02:07:34;13.23;;;9.43;;
18973;SDS011;9621;48.690;9.466;2022-10-03T02:10:11;11.87;;;8.93;;
18973;SDS011;9621;48.690;9.466;2022-10-03T02:12:49;11.73;;;9.17;;
18973;SDS011;9621;48.690;9.466;2022-10-03T02:15:30;13.43;;;9.73;;
18973;SDS011;9621;48.690;9.466;2022-10-03T02:18:01;15.10;;;10.10;;
18973;SDS011;9621;48.690;9.466;2022-10-03T02:20:41;13.70;;;9.40;;
18973;SDS011;9621;48.690;9.466;2022-10-03T02:23:23;12.90;;;9.47;;
18973;SDS011;9621;48.690;9.466;2022-10-03T02:26:05;13.00;;;9.57;;
18973;SDS011;9621;48.690;9.466;2022-10-03T02:29:08;13.37;;;9.23;;
18973;SDS011;9621;48.690;9.466;2022-10-03T02:35:11;12.87;;;9.40;;
18973;SDS011;9621;48.690;9.466;2022-10-03T02:38:25;16.13;;;10.77;;
18973;SDS011;9621;48.690;9.466;2022-10-03T02:41:23;13.57;;;9.90;;
18973;SDS011;9621;48.690;9.466;2022-10-03T02:44:38;13.17;;;10.53;;
18973;SDS011;9621;48.690;9.466;2022-10-03T02:47:44;16.47;;;10.60;;
18973;SDS011;9621;48.690;9.466;2022-10-03T02:50:45;15.57;;;11.50;;
18973;SDS011;9621;48.690;9.466;2022-10-03T03:00:01;16.17;;;11.90;;
18973;SDS011;9621;48.690;9.466;2022-10-03T03:08:45;15.20;;;12.27;;
18973;SDS011;9621;48.690;9.466;2022-10-03T03:11:36;17.63;;;12.33;;
18973;SDS011;9621;48.690;9.466;2022-10-03T03:14:21;20.60;;;13.10;;
18973;SDS011;9621;48.690;9.466;2022-10-03T03:17:19;15.60;;;12.63;;
18973;SDS011;9621;48.690;9.466;2022-10-03T03:22:52;18.27;;;13.07;;
18973;SDS011;9621;48.690;9.466;2022-10-03T03:25:43;21.33;;;13.07;;
18973;SDS011;9621;48.690;9.466;2022-10-03T03:28:33;17.00;;;13.27;;
18973;SDS011;9621;48.690;9.466;2022-10-03T03:31:10;16.30;;;13.10;;
18973;SDS011;9621;48.690;9.466;2022-10-03T03:33:43;20.67;;;14.10;;
18973;SDS011;9621;48.690;9.466;2022-10-03T03:36:21;18.57;;;13.53;;
18973;SDS011;9621;48.690;9.466;2022-10-03T03:38:59;17.73;;;12.27;;
18973;SDS011;9621;48.690;9.466;2022-10-03T03:41:47;21.97;;;12.93;;
18973;SDS011;9621;48.690;9.466;2022-10-03T03:44:52;16.17;;;11.97;;
18973;SDS011;9621;48.690;9.466;2022-10-03T03:47:47;18.43;;;12.47;;
18973;SDS011;9621;48.690;9.466;2022-10-03T03:50:39;16.07;;;11.80;;
18973;SDS011;9621;48.690;9.466;2022-10-03T03:53:18;20.70;;;13.27;;
18973;SDS011;9621;48.690;9.466;2022-10-03T03:56:00;15.87;;;11.53;;
18973;SDS011;9621;48.690;9.466;2022-10-03T03:58:42;18.40;;;12.00;;
18973;SDS011;9621;48.690;9.466;2022-10-03T04:01:19;17.73;;;12.23;;
18973;SDS011;9621;48.690;9.466;2022-10-03T04:04:05;16.90;;;12.30;;
18973;SDS011;9621;48.690;9.466;2022-10-03T04:06:46;17.63;;;12.53;;
18973;SDS011;9621;48.690;9.466;2022-10-03T04:09:34;19.23;;;11.90;;
18973;SDS011;9621;48.690;9.466;2022-10-03T04:12:32;18.47;;;11.83;;
18973;SDS011;9621;48.690;9.466;2022-10-03T04:15:15;18.93;;;12.47;;
18973;SDS011;9621;48.690;9.466;2022-10-03T04:18:02;15.63;;;11.63;;
18973;SDS011;9621;48.690;9.466;2022-10-03T04:21:00;21.77;;;11.83;;
18973;SDS011;9621;48.690;9.466;2022-10-03T04:23:52;16.13;;;11.77;;
18973;SDS011;9621;48.690;9.466;2022-10-03T04:26:35;22.67;;;12.10;;
18973;SDS011;9621;48.690;9.466;2022-10-03T04:32:19;15.17;;;12.57;;
18973;SDS011;9621;48.690;9.466;2022-10-03T04:35:11;18.07;;;11.90;;
18973;SDS011;9621;48.690;9.466;2022-10-03T04:37:51;18.00;;;11.50;;
18973;SDS011;9621;48.690;9.466;2022-10-03T04:40:29;18.07;;;10.83;;
18973;SDS011;9621;48.690;9.466;2022-10-03T04:43:06;16.20;;;9.77;;
18973;SDS011;9621;48.690;9.466;2022-10-03T04:45:47;13.97;;;10.77;;
18973;SDS011;9621;48.690;9.466;2022-10-03T04:48:28;15.97;;;11.27;;
18973;SDS011;9621;48.690;9.466;2022-10-03T04:51:05;17.10;;;11.90;;
18973;SDS011;9621;48.690;9.466;2022-10-03T04:53:47;15.33;;;11.17;;
18973;SDS011;9621;48.690;9.466;2022-10-03T04:56:23;15.23;;;11.27;;
18973;SDS011;9621;48.690;9.466;2022-10-03T04:59:23;18.67;;;11.87;;
18973;SDS011;9621;48.690;9.466;2022-10-03T05:01:59;18.70;;;11.77;;
18973;SDS011;9621;48.690;9.466;2022-10-03T05:04:31;15.97;;;10.80;;
18973;SDS011;9621;48.690;9.466;2022-10-03T05:07:12;15.50;;;11.00;;
18973;SDS011;9621;48.690;9.466;2022-10-03T05:09:44;17.13;;;11.23;;
18973;SDS011;9621;48.690;9.466;2022-10-03T05:12:18;16.43;;;11.43;;
18973;SDS011;9621;48.690;9.466;2022-10-03T05:15:01;16.90;;;12.33;;
18973;SDS011;9621;48.690;9.466;2022-10-03T05:17:40;15.70;;;11.17;;
18973;SDS011;9621;48.690;9.466;2022-10-03T05:20:20;19.13;;;11.73;;
18973;SDS011;9621;48.690;9.466;2022-10-03T05:22:56;17.47;;;11.73;;
18973;SDS011;9621;48.690;9.466;2022-10-03T05:25:35;18.67;;;11.60;;
18973;SDS011;9621;48.690;9.466;2022-10-03T05:28:14;14.90;;;10.80;;
18973;SDS011;9621;48.690;9.466;2022-10-03T05:30:52;14.13;;;10.90;;
18973;SDS011;9621;48.690;9.466;2022-10-03T05:33:28;15.27;;;10.97;;
18973;SDS011;9621;48.690;9.466;2022-10-03T06:10:58;17.23;;;9.30;;
18973;SDS011;9621;48.690;9.466;2022-10-03T06:13:43;16.70;;;9.43;;
18973;SDS011;9621;48.690;9.466;2022-10-03T06:16:26;13.43;;;10.03;;
18973;SDS011;9621;48.690;9.466;2022-10-03T06:19:06;13.03;;;9.10;;
18973;SDS011;9621;48.690;9.466;2022-10-03T06:24:50;13.60;;;8.93;;
18973;SDS011;9621;48.690;9.466;2022-10-03T06:30:48;11.07;;;8.57;;
18973;SDS011;9621;48.690;9.466;2022-10-03T06:37:05;11.47;;;9.13;;
18973;SDS011;9621;48.690;9.466;2022-10-03T06:43:13;10.83;;;9.23;;
18973;SDS011;9621;48.690;9.466;2022-10-03T06:46:33;12.00;;;8.80;;
18973;SDS011;9621;48.690;9.466;2022-10-03T06:53:13;14.87;;;9.43;;
18973;SDS011;9621;48.690;9.466;2022-10-03T07:08:33;13.07;;;9.60;;
18973;SDS011;9621;48.690;9.466;2022-10-03T07:11:39;17.77;;;9.80;;
18973;SDS011;9621;48.690;9.466;2022-10-03T07:17:33;10.77;;;9.33;;
18973;SDS011;9621;48.690;9.466;2022-10-03T07:23:31;14.40;;;10.00;;
18973;SDS011;9621;48.690;9.466;2022-10-03T07:26:28;15.53;;;9.57;;
18973;SDS011;9621;48.690;9.466;2022-10-03T07:29:24;11.63;;;9.10;;
18973;SDS011;9621;48.690;9.466;2022-10-03T07:32:15;12.67;;;8.47;;
18973;SDS011;9621;48.690;9.466;2022-10-03T07:41:30;18.43;;;10.57;;
18973;SDS011;9621;48.690;9.466;2022-10-03T07:47:19;17.57;;;11.10;;
18973;SDS011;9621;48.690;9.466;2022-10-03T07:53:15;19.03;;;10.83;;
18973;SDS011;9621;48.690;9.466;2022-10-03T07:56:06;20.53;;;11.83;;
18973;SDS011;9621;48.690;9.466;2022-10-03T08:02:10;18.07;;;11.97;;
18973;SDS011;9621;48.690;9.466;2022-10-03T08:08:01;21.40;;;13.23;;
18973;SDS011;9621;48.690;9.466;2022-10-03T08:10:51;19.75;;;12.45;;
18973;SDS011;9621;48.690;9.466;2022-10-03T08:13:42;19.00;;;12.60;;
18973;SDS011;9621;48.690;9.466;2022-10-03T08:16:30;20.08;;;12.32;;
18973;SDS011;9621;48.690;9.466;2022-10-03T08:19:19;16.63;;;11.52;;
18973;SDS011;9621;48.690;9.466;2022-10-03T08:22:04;15.82;;;11.68;;
18973;SDS011;9621;48.690;9.466;2022-10-03T08:27:38;17.10;;;11.52;;
18973;SDS011;9621;48.690;9.466;2022-10-03T08:30:18;17.02;;;10.90;;
18973;SDS011;9621;48.690;9.466;2022-10-03T08:32:59;17.23;;;11.48;;
18973;SDS011;9621;48.690;9.466;2022-10-03T08:54:19;18.38;;;11.60;;
18973;SDS011;9621;48.690;9.466;2022-10-03T08:57:11;18.33;;;11.52;;
18973;SDS011;9621;48.690;9.466;2022-10-03T09:00:15;21.58;;;12.13;;
18973;SDS011;9621;48.690;9.466;2022-10-03T09:06:06;15.93;;;11.30;;
18973;SDS011;9621;48.690;9.466;2022-10-03T09:09:05;20.05;;;11.73;;
18973;SDS011;9621;48.690;9.466;2022-10-03T09:12:09;20.55;;;12.32;;
18973;SDS011;9621;48.690;9.466;2022-10-03T09:15:09;19.67;;;11.15;;
18973;SDS011;9621;48.690;9.466;2022-10-03T09:18:14;16.02;;;10.88;;
18973;SDS011;9621;48.690;9.466;2022-10-03T09:24:19;20.60;;;11.82;;
18973;SDS011;9621;48.690;9.466;2022-10-03T09:27:23;15.02;;;10.50;;
18973;SDS011;9621;48.690;9.466;2022-10-03T09:30:14;20.27;;;12.15;;
18973;SDS011;9621;48.690;9.466;2022-10-03T09:32:53;12.63;;;9.35;;
18973;SDS011;9621;48.690;9.466;2022-10-03T09:35:41;17.73;;;8.95;;
18973;SDS011;9621;48.690;9.466;2022-10-03T09:41:41;15.32;;;7.72;;
18973;SDS011;9621;48.690;9.466;2022-10-03T09:44:55;13.75;;;7.95;;
18973;SDS011;9621;48.690;9.466;2022-10-03T09:50:57;11.23;;;6.88;;
18973;SDS011;9621;48.690;9.466;2022-10-03T09:59:59;12.23;;;6.00;;
18973;SDS011;9621;48.690;9.466;2022-10-03T10:05:45;10.57;;;6.10;;
18973;SDS011;9621;48.690;9.466;2022-10-03T10:09:02;14.52;;;7.22;;
18973;SDS011;9621;48.690;9.466;2022-10-03T10:11:53;9.98;;;6.70;;
18973;SDS011;9621;48.690;9.466;2022-10-03T10:15:02;13.20;;;7.47;;
18973;SDS011;9621;48.690;9.466;2022-10-03T10:18:08;13.80;;;7.88;;
18973;SDS011;9621;48.690;9.466;2022-10-03T10:24:10;9.93;;;7.05;;
18973;SDS011;9621;48.690;9.466;2022-10-03T10:29:48;9.98;;;7.20;;
18973;SDS011;9621;48.690;9.466;2022-10-03T10:44:55;14.88;;;7.90;;
18973;SDS011;9621;48.690;9.466;2022-10-03T10:47:54;12.27;;;7.90;;
18973;SDS011;9621;48.690;9.466;2022-10-03T10:51:15;13.77;;;8.07;;
18973;SDS011;9621;48.690;9.466;2022-10-03T10:54:20;14.40;;;7.80;;
18973;SDS011;9621;48.690;9.466;2022-10-03T10:57:08;21.60;;;8.35;;
18973;SDS011;9621;48.690;9.466;2022-10-03T10:59:58;14.77;;;7.88;;
18973;SDS011;9621;48.690;9.466;2022-10-03T11:09:14;14.57;;;7.10;;
18973;SDS011;9621;48.690;9.466;2022-10-03T11:34:01;7.50;;;3.97;;
18973;SDS011;9621;48.690;9.466;2022-10-03T11:37:09;7.88;;;4.10;;
18973;SDS011;9621;48.690;9.466;2022-10-03T11:40:02;7.50;;;3.70;;
18973;SDS011;9621;48.690;9.466;2022-10-03T11:42:48;11.55;;;3.80;;
18973;SDS011;9621;48.690;9.466;2022-10-03T11:45:23;8.52;;;3.75;;
18973;SDS011;9621;48.690;9.466;2022-10-03T11:48:00;10.27;;;4.15;;
18973;SDS011;9621;48.690;9.466;2022-10-03T11:50:43;10.90;;;4.30;;
18973;SDS011;9621;48.690;9.466;2022-10-03T11:53:30;10.52;;;3.70;;
18973;SDS011;9621;48.690;9.466;2022-10-03T11:56:15;5.88;;;2.65;;
18973;SDS011;9621;48.690;9.466;2022-10-03T11:58:52;8.18;;;2.92;;
18973;SDS011;9621;48.690;9.466;2022-10-03T12:01:24;6.82;;;3.25;;
18973;SDS011;9621;48.690;9.466;2022-10-03T12:04:02;6.60;;;2.92;;
18973;SDS011;9621;48.690;9.466;2022-10-03T12:06:51;9.23;;;3.00;;
18973;SDS011;9621;48.690;9.466;2022-10-03T12:09:45;6.20;;;2.70;;
18973;SDS011;9621;48.690;9.466;2022-10-03T12:12:25;7.93;;;3.08;;
18973;SDS011;9621;48.690;9.466;2022-10-03T12:15:02;5.65;;;2.55;;
18973;SDS011;9621;48.690;9.466;2022-10-03T12:17:43;4.68;;;2.70;;
18973;SDS011;9621;48.690;9.466;2022-10-03T12:20:17;5.88;;;2.70;;
18973;SDS011;9621;48.690;9.466;2022-10-03T12:22:49;7.20;;;2.90;;
18973;SDS011;9621;48.690;9.466;2022-10-03T12:25:24;3.72;;;2.33;;
18973;SDS011;9621;48.690;9.466;2022-10-03T12:27:59;6.47;;;2.40;;
18973;SDS011;9621;48.690;9.466;2022-10-03T12:30:38;4.85;;;2.78;;
18973;SDS011;9621;48.690;9.466;2022-10-03T12:33:19;7.63;;;3.03;;
18973;SDS011;9621;48.690;9.466;2022-10-03T12:35:58;8.82;;;3.17;;
18973;SDS011;9621;48.690;9.466;2022-10-03T12:38:36;5.22;;;3.05;;
18973;SDS011;9621;48.690;9.466;2022-10-03T12:41:17;10.35;;;3.17;;
18973;SDS011;9621;48.690;9.466;2022-10-03T12:43:55;8.00;;;3.03;;
18973;SDS011;9621;48.690;9.466;2022-10-03T12:46:38;8.23;;;3.15;;
18973;SDS011;9621;48.690;9.466;2022-10-03T12:49:14;8.65;;;3.47;;
18973;SDS011;9621;48.690;9.466;2022-10-03T12:51:48;9.85;;;3.50;;
18973;SDS011;9621;48.690;9.466;2022-10-03T12:54:32;10.75;;;3.63;;
18973;SDS011;9621;48.690;9.466;2022-10-03T12:57:29;5.90;;;2.95;;
18973;SDS011;9621;48.690;9.466;2022-10-03T13:00:12;9.23;;;3.97;;
18973;SDS011;9621;48.690;9.466;2022-10-03T13:02:46;6.85;;;4.07;;
18973;SDS011;9621;48.690;9.466;2022-10-03T13:05:42;11.02;;;4.00;;
18973;SDS011;9621;48.690;9.466;2022-10-03T13:08:28;7.07;;;3.53;;
18973;SDS011;9621;48.690;9.466;2022-10-03T13:11:08;8.02;;;3.58;;
18973;SDS011;9621;48.690;9.466;2022-10-03T13:13:54;10.18;;;3.13;;
18973;SDS011;9621;48.690;9.466;2022-10-03T13:16:30;7.05;;;3.08;;
18973;SDS011;9621;48.690;9.466;2022-10-03T13:19:03;5.15;;;2.38;;
18973;SDS011;9621;48.690;9.466;2022-10-03T13:21:43;6.85;;;2.63;;
18973;SDS011;9621;48.690;9.466;2022-10-03T13:24:22;7.68;;;2.50;;
18973;SDS011;9621;48.690;9.466;2022-10-03T13:26:59;8.23;;;2.97;;
18973;SDS011;9621;48.690;9.466;2022-10-03T13:29:45;6.43;;;2.72;;
18973;SDS011;9621;48.690;9.466;2022-10-03T13:32:22;7.30;;;3.33;;
18973;SDS011;9621;48.690;9.466;2022-10-03T13:35:01;9.45;;;3.05;;
18973;SDS011;9621;48.690;9.466;2022-10-03T13:40:54;5.30;;;2.67;;
18973;SDS011;9621;48.690;9.466;2022-10-03T13:43:27;4.43;;;2.25;;
18973;SDS011;9621;48.690;9.466;2022-10-03T13:46:01;7.28;;;2.72;;
18973;SDS011;9621;48.690;9.466;2022-10-03T13:48:32;6.57;;;2.78;;
18973;SDS011;9621;48.690;9.466;2022-10-03T13:51:01;4.43;;;2.78;;
18973;SDS011;9621;48.690;9.466;2022-10-03T13:53:43;6.28;;;2.70;;
18973;SDS011;9621;48.690;9.466;2022-10-03T13:56:29;7.53;;;2.85;;
18973;SDS011;9621;48.690;9.466;2022-10-03T13:59:04;5.68;;;3.22;;
18973;SDS011;9621;48.690;9.466;2022-10-03T14:01:42;5.57;;;3.05;;
18973;SDS011;9621;48.690;9.466;2022-10-03T14:04:32;7.45;;;3.35;;
18973;SDS011;9621;48.690;9.466;2022-10-03T14:07:22;7.65;;;2.65;;
18973;SDS011;9621;48.690;9.466;2022-10-03T14:10:06;6.95;;;2.95;;
18973;SDS011;9621;48.690;9.466;2022-10-03T14:12:43;6.70;;;2.85;;
18973;SDS011;9621;48.690;9.466;2022-10-03T14:15:23;5.75;;;2.85;;
18973;SDS011;9621;48.690;9.466;2022-10-03T14:18:02;9.02;;;3.22;;
18973;SDS011;9621;48.690;9.466;2022-10-03T14:20:36;6.45;;;2.67;;
18973;SDS011;9621;48.690;9.466;2022-10-03T14:23:25;8.15;;;2.92;;
18973;SDS011;9621;48.690;9.466;2022-10-03T14:26:01;9.25;;;3.13;;
18973;SDS011;9621;48.690;9.466;2022-10-03T14:28:34;6.35;;;3.15;;
18973;SDS011;9621;48.690;9.466;2022-10-03T14:31:07;9.25;;;3.20;;
18973;SDS011;9621;48.690;9.466;2022-10-03T14:33:44;6.75;;;2.95;;
18973;SDS011;9621;48.690;9.466;2022-10-03T14:36:23;7.30;;;3.10;;
18973;SDS011;9621;48.690;9.466;2022-10-03T14:39:04;5.22;;;2.83;;
18973;SDS011;9621;48.690;9.466;2022-10-03T14:42:16;5.80;;;2.58;;
18973;SDS011;9621;48.690;9.466;2022-10-03T14:44:58;5.10;;;2.97;;
18973;SDS011;9621;48.690;9.466;2022-10-03T14:47:32;6.90;;;3.13;;
18973;SDS011;9621;48.690;9.466;2022-10-03T14:50:03;6.95;;;2.78;;
18973;SDS011;9621;48.690;9.466;2022-10-03T14:52:32;8.30;;;3.08;;
18973;SDS011;9621;48.690;9.466;2022-10-03T14:55:06;6.15;;;2.95;;
18973;SDS011;9621;48.690;9.466;2022-10-03T14:57:39;7.38;;;3.08;;
18973;SDS011;9621;48.690;9.466;2022-10-03T15:00:21;7.30;;;2.97;;
18973;SDS011;9621;48.690;9.466;2022-10-03T15:02:51;5.40;;;2.80;;
18973;SDS011;9621;48.690;9.466;2022-10-03T15:05:21;9.23;;;3.00;;
18973;SDS011;9621;48.690;9.466;2022-10-03T15:07:59;8.55;;;2.70;;
18973;SDS011;9621;48.690;9.466;2022-10-03T15:10:28;5.05;;;3.05;;
18973;SDS011;9621;48.690;9.466;2022-10-03T15:12:57;9.85;;;3.35;;
18973;SDS011;9621;48.690;9.466;2022-10-03T15:15:29;8.07;;;3.50;;
18973;SDS011;9621;48.690;9.466;2022-10-03T15:18:00;7.55;;;2.92;;
18973;SDS011;9621;48.690;9.466;2022-10-03T15:20:33;6.53;;;2.95;;
18973;SDS011;9621;48.690;9.466;2022-10-03T15:23:02;5.75;;;3.10;;
18973;SDS011;9621;48.690;9.466;2022-10-03T15:25:33;5.47;;;2.90;;
18973;SDS011;9621;48.690;9.466;2022-10-03T15:28:02;5.68;;;2.97;;
18973;SDS011;9621;48.690;9.466;2022-10-03T15:30:33;8.15;;;3.50;;
18973;SDS011;9621;48.690;9.466;2022-10-03T15:33:03;7.75;;;3.38;;
18973;SDS011;9621;48.690;9.466;2022-10-03T15:35:39;7.55;;;3.47;;
18973;SDS011;9621;48.690;9.466;2022-10-03T15:38:11;8.55;;;2.97;;
18973;SDS011;9621;48.690;9.466;2022-10-03T15:40:43;9.05;;;3.50;;
18973;SDS011;9621;48.690;9.466;2022-10-03T15:43:22;8.85;;;3.72;;
18973;SDS011;9621;48.690;9.466;2022-10-03T15:45:57;6.38;;;3.22;;
18973;SDS011;9621;48.690;9.466;2022-10-03T15:48:27;5.13;;;3.05;;
18973;SDS011;9621;48.690;9.466;2022-10-03T15:50:56;6.72;;;3.55;;
18973;SDS011;9621;48.690;9.466;2022-10-03T15:53:25;7.50;;;3.17;;
18973;SDS011;9621;48.690;9.466;2022-10-03T15:56:06;5.15;;;2.92;;
18973;SDS011;9621;48.690;9.466;2022-10-03T15:58:36;5.45;;;3.05;;
18973;SDS011;9621;48.690;9.466;2022-10-03T16:01:09;8.05;;;3.67;;
18973;SDS011;9621;48.690;9.466;2022-10-03T16:03:41;10.40;;;3.50;;
18973;SDS011;9621;48.690;9.466;2022-10-03T16:06:16;9.95;;;3.22;;
18973;SDS011;9621;48.690;9.466;2022-10-03T16:08:51;10.52;;;3.40;;
18973;SDS011;9621;48.690;9.466;2022-10-03T16:11:23;6.45;;;3.28;;
18973;SDS011;9621;48.690;9.466;2022-10-03T16:13:55;6.65;;;2.92;;
18973;SDS011;9621;48.690;9.466;2022-10-03T16:16:40;6.97;;;3.15;;
18973;SDS011;9621;48.690;9.466;2022-10-03T16:19:29;5.78;;;3.42;;
18973;SDS011;9621;48.690;9.466;2022-10-03T16:25:00;8.60;;;3.28;;
18973;SDS011;9621;48.690;9.466;2022-10-03T16:27:33;9.00;;;4.22;;
18973;SDS011;9621;48.690;9.466;2022-10-03T16:30:16;8.32;;;3.70;;
18973;SDS011;9621;48.690;9.466;2022-10-03T16:32:48;6.80;;;3.90;;
18973;SDS011;9621;48.690;9.466;2022-10-03T16:35:26;7.50;;;3.55;;
18973;SDS011;9621;48.690;9.466;2022-10-03T16:37:59;6.53;;;3.72;;
18973;SDS011;9621;48.690;9.466;2022-10-03T16:40:29;7.22;;;4.05;;
18973;SDS011;9621;48.690;9.466;2022-10-03T16:42:57;8.52;;;4.30;;
18973;SDS011;9621;48.690;9.466;2022-10-03T16:45:33;7.40;;;3.83;;
18973;SDS011;9621;48.690;9.466;2022-10-03T16:48:08;9.63;;;4.35;;
18973;SDS011;9621;48.690;9.466;2022-10-03T16:50:55;7.65;;;4.03;;
18973;SDS011;9621;48.690;9.466;2022-10-03T16:53:27;7.93;;;4.10;;
18973;SDS011;9621;48.690;9.466;2022-10-03T16:55:55;9.15;;;4.15;;
18973;SDS011;9621;48.690;9.466;2022-10-03T16:58:25;7.75;;;4.20;;
18973;SDS011;9621;48.690;9.466;2022-10-03T17:00:56;12.13;;;4.00;;
18973;SDS011;9621;48.690;9.466;2022-10-03T17:03:28;10.05;;;4.05;;
18973;SDS011;9621;48.690;9.466;2022-10-03T17:21:28;9.27;;;3.90;;
18973;SDS011;9621;48.690;9.466;2022-10-03T17:24:00;10.03;;;4.13;;
18973;SDS011;9621;48.690;9.466;2022-10-03T17:26:32;7.27;;;4.43;;
18973;SDS011;9621;48.690;9.466;2022-10-03T17:29:11;8.53;;;4.23;;
18973;SDS011;9621;48.690;9.466;2022-10-03T17:31:48;8.40;;;4.40;;
18973;SDS011;9621;48.690;9.466;2022-10-03T17:34:25;9.70;;;4.93;;
18973;SDS011;9621;48.690;9.466;2022-10-03T17:39:54;10.80;;;4.67;;
18973;SDS011;9621;48.690;9.466;2022-10-03T17:42:36;9.33;;;4.66;;
18973;SDS011;9621;48.690;9.466;2022-10-03T17:45:13;11.80;;;4.67;;
18973;SDS011;9621;48.690;9.466;2022-10-03T17:47:57;12.20;;;4.60;;
18973;SDS011;9621;48.690;9.466;2022-10-03T17:50:33;9.73;;;5.17;;
18973;SDS011;9621;48.690;9.466;2022-10-03T17:53:12;8.90;;;5.30;;
18973;SDS011;9621;48.690;9.466;2022-10-03T17:55:45;11.97;;;5.20;;
18973;SDS011;9621;48.690;9.466;2022-10-03T17:58:17;8.33;;;5.07;;
18973;SDS011;9621;48.690;9.466;2022-10-03T18:03:23;9.90;;;5.70;;
18973;SDS011;9621;48.690;9.466;2022-10-03T18:05:53;6.33;;;5.17;;
18973;SDS011;9621;48.690;9.466;2022-10-03T18:08:27;10.57;;;5.50;;
18973;SDS011;9621;48.690;9.466;2022-10-03T18:10:57;11.50;;;5.60;;
18973;SDS011;9621;48.690;9.466;2022-10-03T18:13:27;9.73;;;5.40;;
18973;SDS011;9621;48.690;9.466;2022-10-03T18:16:04;12.07;;;5.50;;
18973;SDS011;9621;48.690;9.466;2022-10-03T18:18:47;7.83;;;5.50;;
18973;SDS011;9621;48.690;9.466;2022-10-03T18:21:39;10.90;;;5.47;;
18973;SDS011;9621;48.690;9.466;2022-10-03T18:24:22;11.50;;;5.57;;
18973;SDS011;9621;48.690;9.466;2022-10-03T18:27:06;14.57;;;6.00;;
18973;SDS011;9621;48.690;9.466;2022-10-03T18:29:43;11.60;;;6.00;;
18973;SDS011;9621;48.690;9.466;2022-10-03T18:32:16;10.53;;;5.77;;
18973;SDS011;9621;48.690;9.466;2022-10-03T18:34:51;12.40;;;6.27;;
18973;SDS011;9621;48.690;9.466;2022-10-03T18:40:31;10.50;;;6.70;;
18973;SDS011;9621;48.690;9.466;2022-10-03T18:43:00;11.37;;;6.03;;
18973;SDS011;9621;48.690;9.466;2022-10-03T18:45:31;11.93;;;5.70;;
18973;SDS011;9621;48.690;9.466;2022-10-03T18:48:06;9.40;;;5.50;;
18973;SDS011;9621;48.690;9.466;2022-10-03T18:50:40;16.37;;;5.97;;
18973;SDS011;9621;48.690;9.466;2022-10-03T18:53:16;8.70;;;5.27;;
18973;SDS011;9621;48.690;9.466;2022-10-03T18:55:54;15.73;;;5.73;;
18973;SDS011;9621;48.690;9.466;2022-10-03T18:58:24;19.50;;;6.17;;
18973;SDS011;9621;48.690;9.466;2022-10-03T19:00:57;11.47;;;5.93;;
18973;SDS011;9621;48.690;9.466;2022-10-03T19:03:30;11.27;;;5.80;;
18973;SDS011;9621;48.690;9.466;2022-10-03T19:06:02;11.23;;;6.93;;
18973;SDS011;9621;48.690;9.466;2022-10-03T19:08:34;10.37;;;5.60;;
18973;SDS011;9621;48.690;9.466;2022-10-03T19:11:10;14.40;;;6.40;;
18973;SDS011;9621;48.690;9.466;2022-10-03T19:13:44;14.70;;;5.83;;
18973;SDS011;9621;48.690;9.466;2022-10-03T19:16:25;13.80;;;6.27;;
18973;SDS011;9621;48.690;9.466;2022-10-03T19:19:02;11.80;;;6.63;;
18973;SDS011;9621;48.690;9.466;2022-10-03T19:21:33;11.73;;;5.63;;
18973;SDS011;9621;48.690;9.466;2022-10-03T19:24:03;12.77;;;5.90;;
18973;SDS011;9621;48.690;9.466;2022-10-03T19:26:38;12.67;;;5.83;;
18973;SDS011;9621;48.690;9.466;2022-10-03T19:29:11;9.33;;;6.20;;
18973;SDS011;9621;48.690;9.466;2022-10-03T19:31:42;10.60;;;5.80;;
18973;SDS011;9621;48.690;9.466;2022-10-03T19:34:18;10.20;;;5.27;;
18973;SDS011;9621;48.690;9.466;2022-10-03T19:36:49;13.47;;;5.53;;
18973;SDS011;9621;48.690;9.466;2022-10-03T19:39:17;12.60;;;5.60;;
18973;SDS011;9621;48.690;9.466;2022-10-03T19:41:48;12.07;;;6.20;;
18973;SDS011;9621;48.690;9.466;2022-10-03T19:44:19;13.80;;;5.93;;
18973;SDS011;9621;48.690;9.466;2022-10-03T19:46:52;13.57;;;7.47;;
18973;SDS011;9621;48.690;9.466;2022-10-03T19:49:30;13.97;;;7.60;;
18973;SDS011;9621;48.690;9.466;2022-10-03T19:52:20;10.10;;;6.57;;
18973;SDS011;9621;48.690;9.466;2022-10-03T19:54:52;7.87;;;6.37;;
18973;SDS011;9621;48.690;9.466;2022-10-03T19:57:26;13.30;;;6.97;;
18973;SDS011;9621;48.690;9.466;2022-10-03T19:59:59;12.63;;;6.57;;
18973;SDS011;9621;48.690;9.466;2022-10-03T20:02:28;11.40;;;7.10;;
18973;SDS011;9621;48.690;9.466;2022-10-03T20:04:56;15.70;;;7.00;;
18973;SDS011;9621;48.690;9.466;2022-10-03T20:07:26;16.27;;;7.20;;
18973;SDS011;9621;48.690;9.466;2022-10-03T20:10:21;12.20;;;7.03;;
18973;SDS011;9621;48.690;9.466;2022-10-03T20:13:01;16.53;;;7.33;;